Catalina, AZ

7:10 PM MST on September 03, 2015 (GMT -0700)
Black Horse Ranch | | Change Station
CLOSE
Current Station
Personal Weather Station
Location: Catalina, AZ
Elevation: 3058 ft
Nearby Weather Stations

Elev 3058 ft 32.48 °N, 110.91 °W | Updated 15 seconds ago

Overcast
Overcast
68.1 °F
Feels Like 68.1 °F
N
3.0
Wind Variable Wind from SW
Gusts 11.0 mph

Today
High -- | Low -- °F
--% Chance of Precip.
Yesterday
High -- | Low -- °F
Precip. -- in
5:59 AM 6:45 PM
Waning Gibbous, 64% visible
Pressure 29.86 in
Visibility 10.0 miles
Clouds Clear
Dew Point 64 °F
Humidity 88%
Rainfall 0.11 in
Snow Depth Not available.
UV 0.0 out of 12
Pollen .70 out of 12
Air Quality Not available.
Flu Activity Not available.
METAR KDMA 040158Z AUTO 15006KT 10SM CLR 21/19 A2997 RMK AO2 RAE28DZB28E44 SLP112 P0001 T02090188 $
Pressure 29.86 in
Visibility 10.0 miles
Clouds Clear
Dew Point 64 °F
Humidity 88%
Rainfall 0.11 in
Snow Depth Not available.
UV 0.0 out of 12
Pollen .70 out of 12
Air Quality Not available.
Flu Activity Not available.
METAR KDMA 040158Z AUTO 15006KT 10SM CLR 21/19 A2997 RMK AO2 RAE28DZB28E44 SLP112 P0001 T02090188 $

10-Day Weather Forecast

×

Almanac

Astronomy

Sep. 03, 2015 Rise Set
Actual Time
Civil Twilight
Nautical Twilight
Astronomical Twilight
Moon
Length of Visible Light
Length of Day
Tomorrow will be .
, % of the Moon is Illuminated

Today's Extremes

State Highs State Lows

Community

WunderPhotos

Upload Photos

1,852,096 photos uploaded!

WunderBlogs® & News

Nearby

Air Quality

  Air Quality AQ Index Pollutant
Not available.

Snow Depth

Station Depth Elevation

Earthquake Activity

City Distance Mag. Time & Date
Minimum magnitude displayed is 2.5.

Coastal Water Temperatures

Place Temperature

Stations

Nearby Weather Stations

Station Location Temp. Windchill Dew Point Humidity Wind Precip. Elev Updated Type